sensor_id;sensor_type;location;lat;lon;timestamp;temperature;humidity
7970;DHT22;4030;52.362;9.206;2023-06-22T00:00:55;23.80;74.90
7970;DHT22;4030;52.362;9.206;2023-06-22T00:03:22;23.70;74.70
7970;DHT22;4030;52.362;9.206;2023-06-22T00:05:49;23.70;74.80
7970;DHT22;4030;52.362;9.206;2023-06-22T00:08:16;23.70;74.90
7970;DHT22;4030;52.362;9.206;2023-06-22T00:10:42;23.70;74.90
7970;DHT22;4030;52.362;9.206;2023-06-22T00:13:09;23.70;74.90
7970;DHT22;4030;52.362;9.206;2023-06-22T00:15:36;23.60;74.90
7970;DHT22;4030;52.362;9.206;2023-06-22T00:18:03;23.60;74.90
7970;DHT22;4030;52.362;9.206;2023-06-22T00:20:30;23.60;75.00
7970;DHT22;4030;52.362;9.206;2023-06-22T00:22:57;23.60;75.00
7970;DHT22;4030;52.362;9.206;2023-06-22T00:25:23;23.60;75.00
7970;DHT22;4030;52.362;9.206;2023-06-22T00:27:49;23.60;75.00
7970;DHT22;4030;52.362;9.206;2023-06-22T00:30:16;23.50;75.00
7970;DHT22;4030;52.362;9.206;2023-06-22T00:32:42;23.50;75.00
7970;DHT22;4030;52.362;9.206;2023-06-22T00:35:09;23.40;75.00
7970;DHT22;4030;52.362;9.206;2023-06-22T00:37:38;23.40;75.10
7970;DHT22;4030;52.362;9.206;2023-06-22T00:40:08;23.40;75.10
7970;DHT22;4030;52.362;9.206;2023-06-22T00:42:38;23.40;75.10
7970;DHT22;4030;52.362;9.206;2023-06-22T00:45:05;23.40;75.20
7970;DHT22;4030;52.362;9.206;2023-06-22T00:47:31;23.40;75.30
7970;DHT22;4030;52.362;9.206;2023-06-22T00:49:57;23.40;75.10
7970;DHT22;4030;52.362;9.206;2023-06-22T00:52:24;23.40;75.40
7970;DHT22;4030;52.362;9.206;2023-06-22T00:54:54;23.30;75.30
7970;DHT22;4030;52.362;9.206;2023-06-22T00:57:22;23.30;75.30
7970;DHT22;4030;52.362;9.206;2023-06-22T00:59:53;23.30;75.30
7970;DHT22;4030;52.362;9.206;2023-06-22T01:02:19;23.30;75.30
7970;DHT22;4030;52.362;9.206;2023-06-22T01:04:45;23.30;75.30
7970;DHT22;4030;52.362;9.206;2023-06-22T01:07:36;23.20;75.20
7970;DHT22;4030;52.362;9.206;2023-06-22T01:13:11;23.10;75.20
7970;DHT22;4030;52.362;9.206;2023-06-22T01:15:51;23.10;75.20
7970;DHT22;4030;52.362;9.206;2023-06-22T01:18:19;23.10;75.40
7970;DHT22;4030;52.362;9.206;2023-06-22T01:20:46;23.10;75.40
7970;DHT22;4030;52.362;9.206;2023-06-22T01:23:42;23.10;75.40
7970;DHT22;4030;52.362;9.206;2023-06-22T01:26:43;23.10;75.40
7970;DHT22;4030;52.362;9.206;2023-06-22T01:29:21;23.00;75.40
7970;DHT22;4030;52.362;9.206;2023-06-22T01:31:49;23.00;75.50
7970;DHT22;4030;52.362;9.206;2023-06-22T01:34:16;23.00;75.70
7970;DHT22;4030;52.362;9.206;2023-06-22T01:36:43;22.90;75.60
7970;DHT22;4030;52.362;9.206;2023-06-22T01:39:10;22.90;75.60
7970;DHT22;4030;52.362;9.206;2023-06-22T01:41:37;22.90;75.70
7970;DHT22;4030;52.362;9.206;2023-06-22T01:44:07;22.90;75.80
7970;DHT22;4030;52.362;9.206;2023-06-22T01:46:35;22.80;75.60
7970;DHT22;4030;52.362;9.206;2023-06-22T01:49:04;22.90;75.70
7970;DHT22;4030;52.362;9.206;2023-06-22T01:51:31;22.80;75.70
7970;DHT22;4030;52.362;9.206;2023-06-22T01:53:57;22.80;75.70
7970;DHT22;4030;52.362;9.206;2023-06-22T01:56:22;22.80;75.80
7970;DHT22;4030;52.362;9.206;2023-06-22T01:58:55;22.80;75.80
7970;DHT22;4030;52.362;9.206;2023-06-22T02:01:35;22.70;75.70
7970;DHT22;4030;52.362;9.206;2023-06-22T02:04:21;22.70;75.80
7970;DHT22;4030;52.362;9.206;2023-06-22T02:06:57;22.70;75.80
7970;DHT22;4030;52.362;9.206;2023-06-22T02:09:25;22.70;75.90
7970;DHT22;4030;52.362;9.206;2023-06-22T02:11:56;22.70;75.90
7970;DHT22;4030;52.362;9.206;2023-06-22T02:14:23;22.70;75.90
7970;DHT22;4030;52.362;9.206;2023-06-22T02:16:51;22.70;76.10
7970;DHT22;4030;52.362;9.206;2023-06-22T02:19:17;22.60;76.00
7970;DHT22;4030;52.362;9.206;2023-06-22T02:21:44;22.60;76.00
7970;DHT22;4030;52.362;9.206;2023-06-22T02:24:10;22.60;76.00
7970;DHT22;4030;52.362;9.206;2023-06-22T02:26:37;22.60;76.10
7970;DHT22;4030;52.362;9.206;2023-06-22T02:29:03;22.60;76.30
7970;DHT22;4030;52.362;9.206;2023-06-22T02:31:29;22.60;76.40
7970;DHT22;4030;52.362;9.206;2023-06-22T02:33:59;22.50;76.20
7970;DHT22;4030;52.362;9.206;2023-06-22T02:36:25;22.50;76.20
7970;DHT22;4030;52.362;9.206;2023-06-22T02:38:52;22.50;76.10
7970;DHT22;4030;52.362;9.206;2023-06-22T02:41:19;22.50;76.20
7970;DHT22;4030;52.362;9.206;2023-06-22T02:43:46;22.40;76.10
7970;DHT22;4030;52.362;9.206;2023-06-22T02:46:13;22.40;76.10
7970;DHT22;4030;52.362;9.206;2023-06-22T02:48:40;22.40;76.20
7970;DHT22;4030;52.362;9.206;2023-06-22T02:51:06;22.40;76.10
7970;DHT22;4030;52.362;9.206;2023-06-22T02:53:32;22.40;76.10
7970;DHT22;4030;52.362;9.206;2023-06-22T02:55:58;22.40;76.10
7970;DHT22;4030;52.362;9.206;2023-06-22T02:58:24;22.30;76.10
7970;DHT22;4030;52.362;9.206;2023-06-22T03:00:50;22.30;76.20
7970;DHT22;4030;52.362;9.206;2023-06-22T03:03:19;22.30;76.20
7970;DHT22;4030;52.362;9.206;2023-06-22T03:05:45;22.30;76.30
7970;DHT22;4030;52.362;9.206;2023-06-22T03:08:11;22.20;76.20
7970;DHT22;4030;52.362;9.206;2023-06-22T03:10:37;22.20;76.30
7970;DHT22;4030;52.362;9.206;2023-06-22T03:13:03;22.20;76.30
7970;DHT22;4030;52.362;9.206;2023-06-22T03:15:29;22.20;76.40
7970;DHT22;4030;52.362;9.206;2023-06-22T03:17:56;22.20;76.50
7970;DHT22;4030;52.362;9.206;2023-06-22T03:20:22;22.20;76.50
7970;DHT22;4030;52.362;9.206;2023-06-22T03:22:48;22.20;76.50
7970;DHT22;4030;52.362;9.206;2023-06-22T03:25:14;22.20;76.60
7970;DHT22;4030;52.362;9.206;2023-06-22T03:27:41;22.20;76.60
7970;DHT22;4030;52.362;9.206;2023-06-22T03:30:08;22.10;76.60
7970;DHT22;4030;52.362;9.206;2023-06-22T03:32:35;22.10;76.60
7970;DHT22;4030;52.362;9.206;2023-06-22T03:35:00;22.10;76.60
7970;DHT22;4030;52.362;9.206;2023-06-22T03:37:27;22.10;76.70
7970;DHT22;4030;52.362;9.206;2023-06-22T03:39:53;22.10;76.70
7970;DHT22;4030;52.362;9.206;2023-06-22T03:42:19;22.10;76.70
7970;DHT22;4030;52.362;9.206;2023-06-22T03:44:44;22.10;76.80
7970;DHT22;4030;52.362;9.206;2023-06-22T03:47:10;22.10;76.80
7970;DHT22;4030;52.362;9.206;2023-06-22T03:49:36;22.10;76.80
7970;DHT22;4030;52.362;9.206;2023-06-22T03:52:02;22.10;76.80
7970;DHT22;4030;52.362;9.206;2023-06-22T03:54:29;22.10;76.90
7970;DHT22;4030;52.362;9.206;2023-06-22T03:56:56;22.10;76.90
7970;DHT22;4030;52.362;9.206;2023-06-22T03:59:22;22.10;77.10
7970;DHT22;4030;52.362;9.206;2023-06-22T04:01:48;22.10;77.10
7970;DHT22;4030;52.362;9.206;2023-06-22T04:04:14;22.10;77.10
7970;DHT22;4030;52.362;9.206;2023-06-22T04:06:40;22.10;77.00
7970;DHT22;4030;52.362;9.206;2023-06-22T04:09:06;22.10;77.10
7970;DHT22;4030;52.362;9.206;2023-06-22T04:11:32;22.20;77.20
7970;DHT22;4030;52.362;9.206;2023-06-22T04:13:58;22.10;77.20
7970;DHT22;4030;52.362;9.206;2023-06-22T04:16:23;22.20;77.20
7970;DHT22;4030;52.362;9.206;2023-06-22T04:18:49;22.20;77.20
7970;DHT22;4030;52.362;9.206;2023-06-22T04:21:15;22.20;77.00
7970;DHT22;4030;52.362;9.206;2023-06-22T04:23:40;22.30;77.20
7970;DHT22;4030;52.362;9.206;2023-06-22T04:26:06;22.30;77.00
7970;DHT22;4030;52.362;9.206;2023-06-22T04:28:32;22.30;77.00
7970;DHT22;4030;52.362;9.206;2023-06-22T04:31:01;22.40;77.10
7970;DHT22;4030;52.362;9.206;2023-06-22T04:33:28;22.30;77.00
7970;DHT22;4030;52.362;9.206;2023-06-22T04:35:57;22.40;77.10
7970;DHT22;4030;52.362;9.206;2023-06-22T04:38:24;22.40;77.20
7970;DHT22;4030;52.362;9.206;2023-06-22T04:40:50;22.40;77.20
7970;DHT22;4030;52.362;9.206;2023-06-22T04:43:16;22.40;77.30
7970;DHT22;4030;52.362;9.206;2023-06-22T04:45:42;22.40;77.30
7970;DHT22;4030;52.362;9.206;2023-06-22T04:48:08;22.40;77.30
7970;DHT22;4030;52.362;9.206;2023-06-22T04:50:41;22.40;77.30
7970;DHT22;4030;52.362;9.206;2023-06-22T04:53:07;22.40;77.40
7970;DHT22;4030;52.362;9.206;2023-06-22T04:55:35;22.40;77.50
7970;DHT22;4030;52.362;9.206;2023-06-22T04:58:03;22.40;77.40
7970;DHT22;4030;52.362;9.206;2023-06-22T05:00:31;22.40;77.40
7970;DHT22;4030;52.362;9.206;2023-06-22T05:02:57;22.50;77.50
7970;DHT22;4030;52.362;9.206;2023-06-22T05:05:23;22.50;77.50
7970;DHT22;4030;52.362;9.206;2023-06-22T05:07:51;22.50;77.50
7970;DHT22;4030;52.362;9.206;2023-06-22T05:10:18;22.50;77.30
7970;DHT22;4030;52.362;9.206;2023-06-22T05:12:46;22.60;77.50
7970;DHT22;4030;52.362;9.206;2023-06-22T05:15:12;22.60;77.40
7970;DHT22;4030;52.362;9.206;2023-06-22T05:17:38;22.60;77.40
7970;DHT22;4030;52.362;9.206;2023-06-22T05:20:12;22.60;77.40
7970;DHT22;4030;52.362;9.206;2023-06-22T05:22:39;22.70;77.40
7970;DHT22;4030;52.362;9.206;2023-06-22T05:25:07;22.70;77.40
7970;DHT22;4030;52.362;9.206;2023-06-22T05:27:34;22.70;77.30
7970;DHT22;4030;52.362;9.206;2023-06-22T05:30:08;22.70;77.40
7970;DHT22;4030;52.362;9.206;2023-06-22T05:32:35;22.70;77.40
7970;DHT22;4030;52.362;9.206;2023-06-22T05:35:02;22.70;77.50
7970;DHT22;4030;52.362;9.206;2023-06-22T05:37:28;22.70;78.50
7970;DHT22;4030;52.362;9.206;2023-06-22T05:39:54;22.70;77.70
7970;DHT22;4030;52.362;9.206;2023-06-22T05:42:21;22.80;77.80
7970;DHT22;4030;52.362;9.206;2023-06-22T05:44:47;22.80;77.70
7970;DHT22;4030;52.362;9.206;2023-06-22T05:47:13;22.90;77.70
7970;DHT22;4030;52.362;9.206;2023-06-22T05:49:39;23.00;77.60
7970;DHT22;4030;52.362;9.206;2023-06-22T05:52:04;23.00;77.40
7970;DHT22;4030;52.362;9.206;2023-06-22T05:54:30;23.10;77.40
7970;DHT22;4030;52.362;9.206;2023-06-22T05:56:56;23.20;77.40
7970;DHT22;4030;52.362;9.206;2023-06-22T05:59:22;23.20;77.40
7970;DHT22;4030;52.362;9.206;2023-06-22T06:01:47;23.30;77.40
7970;DHT22;4030;52.362;9.206;2023-06-22T06:04:17;23.30;77.50
7970;DHT22;4030;52.362;9.206;2023-06-22T06:06:43;23.30;77.70
7970;DHT22;4030;52.362;9.206;2023-06-22T06:09:09;23.30;77.70
7970;DHT22;4030;52.362;9.206;2023-06-22T06:11:34;23.40;77.80
7970;DHT22;4030;52.362;9.206;2023-06-22T06:14:00;23.40;77.70
7970;DHT22;4030;52.362;9.206;2023-06-22T06:16:26;23.50;77.70
7970;DHT22;4030;52.362;9.206;2023-06-22T06:18:51;23.50;77.70
7970;DHT22;4030;52.362;9.206;2023-06-22T06:21:18;23.60;77.90
7970;DHT22;4030;52.362;9.206;2023-06-22T06:23:44;23.70;78.00
7970;DHT22;4030;52.362;9.206;2023-06-22T06:26:10;23.70;78.10
7970;DHT22;4030;52.362;9.206;2023-06-22T06:28:35;23.70;78.10
7970;DHT22;4030;52.362;9.206;2023-06-22T06:31:01;23.80;78.30
7970;DHT22;4030;52.362;9.206;2023-06-22T06:33:27;23.80;78.30
7970;DHT22;4030;52.362;9.206;2023-06-22T06:35:52;23.90;78.30
7970;DHT22;4030;52.362;9.206;2023-06-22T06:38:18;24.00;78.40
7970;DHT22;4030;52.362;9.206;2023-06-22T06:40:44;24.00;78.40
7970;DHT22;4030;52.362;9.206;2023-06-22T06:43:10;24.10;78.40
7970;DHT22;4030;52.362;9.206;2023-06-22T06:45:36;24.20;78.40
7970;DHT22;4030;52.362;9.206;2023-06-22T06:48:02;24.30;78.40
7970;DHT22;4030;52.362;9.206;2023-06-22T06:50:28;24.40;78.40
7970;DHT22;4030;52.362;9.206;2023-06-22T06:52:53;24.40;78.30
7970;DHT22;4030;52.362;9.206;2023-06-22T06:55:20;24.50;78.30
7970;DHT22;4030;52.362;9.206;2023-06-22T06:57:45;24.60;78.20
7970;DHT22;4030;52.362;9.206;2023-06-22T07:00:14;24.60;78.10
7970;DHT22;4030;52.362;9.206;2023-06-22T07:02:42;24.60;78.20
7970;DHT22;4030;52.362;9.206;2023-06-22T07:05:09;24.60;78.30
7970;DHT22;4030;52.362;9.206;2023-06-22T07:07:36;24.70;78.50
7970;DHT22;4030;52.362;9.206;2023-06-22T07:10:03;24.70;78.40
7970;DHT22;4030;52.362;9.206;2023-06-22T07:12:29;24.80;78.40
7970;DHT22;4030;52.362;9.206;2023-06-22T07:15:02;24.80;78.30
7970;DHT22;4030;52.362;9.206;2023-06-22T07:17:33;24.90;78.20
7970;DHT22;4030;52.362;9.206;2023-06-22T07:19:59;25.00;78.00
7970;DHT22;4030;52.362;9.206;2023-06-22T07:22:25;25.00;77.80
7970;DHT22;4030;52.362;9.206;2023-06-22T07:24:51;25.10;77.50
7970;DHT22;4030;52.362;9.206;2023-06-22T07:27:16;25.20;77.60
7970;DHT22;4030;52.362;9.206;2023-06-22T07:29:45;25.30;77.30
7970;DHT22;4030;52.362;9.206;2023-06-22T07:32:11;25.40;76.90
7970;DHT22;4030;52.362;9.206;2023-06-22T07:34:37;25.50;76.60
7970;DHT22;4030;52.362;9.206;2023-06-22T07:37:02;25.60;76.40
7970;DHT22;4030;52.362;9.206;2023-06-22T07:39:30;25.80;76.10
7970;DHT22;4030;52.362;9.206;2023-06-22T07:41:55;25.90;75.80
7970;DHT22;4030;52.362;9.206;2023-06-22T07:44:21;26.00;75.60
7970;DHT22;4030;52.362;9.206;2023-06-22T07:46:47;26.10;75.60
7970;DHT22;4030;52.362;9.206;2023-06-22T07:49:12;26.10;75.50
7970;DHT22;4030;52.362;9.206;2023-06-22T07:51:38;26.20;75.40
7970;DHT22;4030;52.362;9.206;2023-06-22T07:54:04;26.20;75.40
7970;DHT22;4030;52.362;9.206;2023-06-22T07:56:29;26.30;75.30
7970;DHT22;4030;52.362;9.206;2023-06-22T07:58:55;26.40;75.20
7970;DHT22;4030;52.362;9.206;2023-06-22T08:01:23;26.40;75.00
7970;DHT22;4030;52.362;9.206;2023-06-22T08:03:49;26.50;74.90
7970;DHT22;4030;52.362;9.206;2023-06-22T08:06:15;26.60;74.80
7970;DHT22;4030;52.362;9.206;2023-06-22T08:08:41;26.60;74.80
7970;DHT22;4030;52.362;9.206;2023-06-22T08:11:08;26.60;74.60
7970;DHT22;4030;52.362;9.206;2023-06-22T08:13:34;26.70;74.50
7970;DHT22;4030;52.362;9.206;2023-06-22T08:15:59;26.70;74.50
7970;DHT22;4030;52.362;9.206;2023-06-22T08:18:25;26.70;74.40
7970;DHT22;4030;52.362;9.206;2023-06-22T08:20:51;26.70;74.30
7970;DHT22;4030;52.362;9.206;2023-06-22T08:23:17;26.80;74.30
7970;DHT22;4030;52.362;9.206;2023-06-22T08:25:42;26.70;74.20
7970;DHT22;4030;52.362;9.206;2023-06-22T08:28:08;26.70;74.20
7970;DHT22;4030;52.362;9.206;2023-06-22T08:30:34;26.70;74.10
7970;DHT22;4030;52.362;9.206;2023-06-22T08:32:59;26.70;74.00
7970;DHT22;4030;52.362;9.206;2023-06-22T08:35:25;26.70;74.00
7970;DHT22;4030;52.362;9.206;2023-06-22T08:37:51;26.60;73.90
7970;DHT22;4030;52.362;9.206;2023-06-22T08:40:20;26.70;73.80
7970;DHT22;4030;52.362;9.206;2023-06-22T08:42:46;26.60;73.70
7970;DHT22;4030;52.362;9.206;2023-06-22T08:45:12;26.60;73.60
7970;DHT22;4030;52.362;9.206;2023-06-22T08:47:39;26.60;73.60
7970;DHT22;4030;52.362;9.206;2023-06-22T08:50:07;26.60;73.50
7970;DHT22;4030;52.362;9.206;2023-06-22T08:52:36;26.60;73.40
7970;DHT22;4030;52.362;9.206;2023-06-22T08:55:04;26.60;73.30
7970;DHT22;4030;52.362;9.206;2023-06-22T08:57:30;26.60;73.20
7970;DHT22;4030;52.362;9.206;2023-06-22T08:59:58;24.90;71.70
7970;DHT22;4030;52.362;9.206;2023-06-22T09:02:28;26.70;72.90
7970;DHT22;4030;52.362;9.206;2023-06-22T09:04:57;26.70;72.70
7970;DHT22;4030;52.362;9.206;2023-06-22T09:07:23;26.70;72.50
7970;DHT22;4030;52.362;9.206;2023-06-22T09:09:50;26.80;72.40
7970;DHT22;4030;52.362;9.206;2023-06-22T09:12:17;26.90;72.20
7970;DHT22;4030;52.362;9.206;2023-06-22T09:14:45;26.90;72.20
7970;DHT22;4030;52.362;9.206;2023-06-22T09:17:13;26.90;72.10
7970;DHT22;4030;52.362;9.206;2023-06-22T09:19:38;26.90;72.00
7970;DHT22;4030;52.362;9.206;2023-06-22T09:22:04;26.90;71.90
7970;DHT22;4030;52.362;9.206;2023-06-22T09:24:32;26.90;71.90
7970;DHT22;4030;52.362;9.206;2023-06-22T09:26:57;26.90;71.80
7970;DHT22;4030;52.362;9.206;2023-06-22T09:29:23;26.90;71.80
7970;DHT22;4030;52.362;9.206;2023-06-22T09:31:49;26.90;71.70
7970;DHT22;4030;52.362;9.206;2023-06-22T09:34:14;26.90;71.60
7970;DHT22;4030;52.362;9.206;2023-06-22T09:36:41;27.00;71.60
7970;DHT22;4030;52.362;9.206;2023-06-22T09:39:07;27.00;71.50
7970;DHT22;4030;52.362;9.206;2023-06-22T09:41:32;27.10;71.40
7970;DHT22;4030;52.362;9.206;2023-06-22T09:43:58;27.20;71.40
7970;DHT22;4030;52.362;9.206;2023-06-22T09:46:24;27.30;71.30
7970;DHT22;4030;52.362;9.206;2023-06-22T09:48:53;27.40;71.20
7970;DHT22;4030;52.362;9.206;2023-06-22T09:51:18;27.50;71.00
7970;DHT22;4030;52.362;9.206;2023-06-22T09:53:46;27.70;71.00
7970;DHT22;4030;52.362;9.206;2023-06-22T09:56:12;27.70;70.90
7970;DHT22;4030;52.362;9.206;2023-06-22T09:58:41;27.80;70.70
7970;DHT22;4030;52.362;9.206;2023-06-22T10:01:08;27.90;70.80
7970;DHT22;4030;52.362;9.206;2023-06-22T10:03:33;28.00;70.70
7970;DHT22;4030;52.362;9.206;2023-06-22T10:05:59;28.00;70.70
7970;DHT22;4030;52.362;9.206;2023-06-22T10:08:25;28.10;70.70
7970;DHT22;4030;52.362;9.206;2023-06-22T10:10:51;28.10;70.60
7970;DHT22;4030;52.362;9.206;2023-06-22T10:13:16;28.10;70.60
7970;DHT22;4030;52.362;9.206;2023-06-22T10:15:42;28.10;70.60
7970;DHT22;4030;52.362;9.206;2023-06-22T10:18:08;28.20;70.50
7970;DHT22;4030;52.362;9.206;2023-06-22T10:20:33;28.20;70.30
7970;DHT22;4030;52.362;9.206;2023-06-22T10:22:59;28.30;70.30
7970;DHT22;4030;52.362;9.206;2023-06-22T10:25:26;28.30;70.10
7970;DHT22;4030;52.362;9.206;2023-06-22T10:27:51;28.40;70.20
7970;DHT22;4030;52.362;9.206;2023-06-22T10:30:17;28.40;70.30
7970;DHT22;4030;52.362;9.206;2023-06-22T10:32:43;28.40;70.30
7970;DHT22;4030;52.362;9.206;2023-06-22T10:35:09;28.50;70.50
7970;DHT22;4030;52.362;9.206;2023-06-22T10:37:41;28.50;70.50
7970;DHT22;4030;52.362;9.206;2023-06-22T10:40:12;28.60;70.40
7970;DHT22;4030;52.362;9.206;2023-06-22T10:42:38;28.60;70.40
7970;DHT22;4030;52.362;9.206;2023-06-22T10:45:05;28.70;70.40
7970;DHT22;4030;52.362;9.206;2023-06-22T10:47:30;28.80;70.40
7970;DHT22;4030;52.362;9.206;2023-06-22T10:49:56;28.90;70.30
7970;DHT22;4030;52.362;9.206;2023-06-22T10:52:22;29.00;70.20
7970;DHT22;4030;52.362;9.206;2023-06-22T10:54:48;29.10;70.20
7970;DHT22;4030;52.362;9.206;2023-06-22T10:57:13;29.20;70.20
7970;DHT22;4030;52.362;9.206;2023-06-22T10:59:39;29.20;70.00
7970;DHT22;4030;52.362;9.206;2023-06-22T11:02:05;29.30;70.90
7970;DHT22;4030;52.362;9.206;2023-06-22T11:04:30;29.30;69.90
7970;DHT22;4030;52.362;9.206;2023-06-22T11:06:56;29.30;69.80
7970;DHT22;4030;52.362;9.206;2023-06-22T11:09:22;29.40;69.70
7970;DHT22;4030;52.362;9.206;2023-06-22T11:11:49;29.50;69.50
7970;DHT22;4030;52.362;9.206;2023-06-22T11:14:16;29.50;69.30
7970;DHT22;4030;52.362;9.206;2023-06-22T11:16:42;29.50;69.10
7970;DHT22;4030;52.362;9.206;2023-06-22T11:19:07;29.50;68.90
7970;DHT22;4030;52.362;9.206;2023-06-22T11:21:33;29.50;68.60
7970;DHT22;4030;52.362;9.206;2023-06-22T11:23:59;29.60;68.50
7970;DHT22;4030;52.362;9.206;2023-06-22T11:26:25;29.50;68.00
7970;DHT22;4030;52.362;9.206;2023-06-22T11:28:54;29.50;67.90
7970;DHT22;4030;52.362;9.206;2023-06-22T11:31:19;29.60;67.80
7970;DHT22;4030;52.362;9.206;2023-06-22T11:33:45;29.60;67.60
7970;DHT22;4030;52.362;9.206;2023-06-22T11:36:12;29.70;67.40
7970;DHT22;4030;52.362;9.206;2023-06-22T11:38:38;29.90;67.00
7970;DHT22;4030;52.362;9.206;2023-06-22T11:41:06;30.10;66.80
7970;DHT22;4030;52.362;9.206;2023-06-22T11:43:32;30.30;66.50
7970;DHT22;4030;52.362;9.206;2023-06-22T11:45:57;30.50;66.00
7970;DHT22;4030;52.362;9.206;2023-06-22T11:48:26;30.70;65.50
7970;DHT22;4030;52.362;9.206;2023-06-22T11:50:52;30.90;64.90
7970;DHT22;4030;52.362;9.206;2023-06-22T11:53:18;31.00;64.60
7970;DHT22;4030;52.362;9.206;2023-06-22T11:55:44;31.10;64.10
7970;DHT22;4030;52.362;9.206;2023-06-22T11:58:10;31.20;63.70
7970;DHT22;4030;52.362;9.206;2023-06-22T12:00:36;31.40;63.50
7970;DHT22;4030;52.362;9.206;2023-06-22T12:03:02;31.50;63.20
7970;DHT22;4030;52.362;9.206;2023-06-22T12:05:28;31.60;62.90
7970;DHT22;4030;52.362;9.206;2023-06-22T12:07:54;31.70;62.50
7970;DHT22;4030;52.362;9.206;2023-06-22T12:10:21;31.80;62.20
7970;DHT22;4030;52.362;9.206;2023-06-22T12:12:47;31.80;61.60
7970;DHT22;4030;52.362;9.206;2023-06-22T12:15:13;31.90;61.40
7970;DHT22;4030;52.362;9.206;2023-06-22T12:17:38;31.80;61.10
7970;DHT22;4030;52.362;9.206;2023-06-22T12:20:06;31.80;61.00
7970;DHT22;4030;52.362;9.206;2023-06-22T12:22:32;31.80;60.70
7970;DHT22;4030;52.362;9.206;2023-06-22T12:24:58;31.70;60.60
7970;DHT22;4030;52.362;9.206;2023-06-22T12:27:25;31.70;60.40
7970;DHT22;4030;52.362;9.206;2023-06-22T12:29:50;32.50;60.80
7970;DHT22;4030;52.362;9.206;2023-06-22T12:32:16;31.70;60.20
7970;DHT22;4030;52.362;9.206;2023-06-22T12:34:43;31.70;60.20
7970;DHT22;4030;52.362;9.206;2023-06-22T12:37:09;31.60;60.30
7970;DHT22;4030;52.362;9.206;2023-06-22T12:39:35;31.60;60.30
7970;DHT22;4030;52.362;9.206;2023-06-22T12:42:01;31.50;60.20
7970;DHT22;4030;52.362;9.206;2023-06-22T12:44:26;31.50;60.10
7970;DHT22;4030;52.362;9.206;2023-06-22T12:46:52;31.50;60.00
7970;DHT22;4030;52.362;9.206;2023-06-22T12:49:18;31.50;59.80
7970;DHT22;4030;52.362;9.206;2023-06-22T12:51:44;31.50;59.80
7970;DHT22;4030;52.362;9.206;2023-06-22T12:54:11;31.50;59.70
7970;DHT22;4030;52.362;9.206;2023-06-22T12:56:37;31.50;59.90
7970;DHT22;4030;52.362;9.206;2023-06-22T12:59:04;31.40;60.00
7970;DHT22;4030;52.362;9.206;2023-06-22T13:01:33;31.30;60.30
7970;DHT22;4030;52.362;9.206;2023-06-22T13:03:59;31.20;60.50
7970;DHT22;4030;52.362;9.206;2023-06-22T13:06:25;31.00;60.80
7970;DHT22;4030;52.362;9.206;2023-06-22T13:08:51;30.90;61.20
7970;DHT22;4030;52.362;9.206;2023-06-22T13:11:16;30.70;61.00
7970;DHT22;4030;52.362;9.206;2023-06-22T13:13:44;30.60;61.60
7970;DHT22;4030;52.362;9.206;2023-06-22T13:16:10;30.40;61.80
7970;DHT22;4030;52.362;9.206;2023-06-22T13:18:36;30.20;62.20
7970;DHT22;4030;52.362;9.206;2023-06-22T13:21:02;30.00;62.50
7970;DHT22;4030;52.362;9.206;2023-06-22T13:23:28;29.90;63.20
7970;DHT22;4030;52.362;9.206;2023-06-22T13:25:54;29.70;63.90
7970;DHT22;4030;52.362;9.206;2023-06-22T13:28:20;29.60;64.30
7970;DHT22;4030;52.362;9.206;2023-06-22T13:30:46;29.40;65.10
7970;DHT22;4030;52.362;9.206;2023-06-22T13:33:16;29.30;67.60
7970;DHT22;4030;52.362;9.206;2023-06-22T13:35:42;29.20;70.00
7970;DHT22;4030;52.362;9.206;2023-06-22T13:38:10;29.00;71.50
7970;DHT22;4030;52.362;9.206;2023-06-22T13:40:37;28.80;73.60
7970;DHT22;4030;52.362;9.206;2023-06-22T13:43:06;28.60;75.30
7970;DHT22;4030;52.362;9.206;2023-06-22T13:45:32;28.40;77.90
7970;DHT22;4030;52.362;9.206;2023-06-22T13:47:57;28.30;79.00
7970;DHT22;4030;52.362;9.206;2023-06-22T13:50:23;28.10;80.00
7970;DHT22;4030;52.362;9.206;2023-06-22T13:52:49;28.00;80.70
7970;DHT22;4030;52.362;9.206;2023-06-22T13:55:14;27.90;81.90
7970;DHT22;4030;52.362;9.206;2023-06-22T13:57:40;27.80;82.00
7970;DHT22;4030;52.362;9.206;2023-06-22T14:00:07;27.70;82.20
7970;DHT22;4030;52.362;9.206;2023-06-22T14:02:34;27.60;82.70
7970;DHT22;4030;52.362;9.206;2023-06-22T14:04:59;27.50;82.60
7970;DHT22;4030;52.362;9.206;2023-06-22T14:07:25;27.40;82.50
7970;DHT22;4030;52.362;9.206;2023-06-22T14:09:51;27.30;82.80
7970;DHT22;4030;52.362;9.206;2023-06-22T14:12:16;27.30;83.70
7970;DHT22;4030;52.362;9.206;2023-06-22T14:14:45;27.20;84.30
7970;DHT22;4030;52.362;9.206;2023-06-22T14:17:11;27.10;85.00
7970;DHT22;4030;52.362;9.206;2023-06-22T14:19:37;27.00;85.60
7970;DHT22;4030;52.362;9.206;2023-06-22T14:22:03;26.90;87.40
7970;DHT22;4030;52.362;9.206;2023-06-22T14:24:29;26.90;88.10
7970;DHT22;4030;52.362;9.206;2023-06-22T14:26:55;26.80;88.30
7970;DHT22;4030;52.362;9.206;2023-06-22T14:29:21;26.80;89.40
7970;DHT22;4030;52.362;9.206;2023-06-22T14:31:48;26.60;90.00
7970;DHT22;4030;52.362;9.206;2023-06-22T14:34:15;26.60;90.60
7970;DHT22;4030;52.362;9.206;2023-06-22T14:36:42;26.50;90.30
7970;DHT22;4030;52.362;9.206;2023-06-22T14:39:09;26.50;90.10
7970;DHT22;4030;52.362;9.206;2023-06-22T14:41:34;26.60;90.00
7970;DHT22;4030;52.362;9.206;2023-06-22T14:44:00;26.60;89.90
7970;DHT22;4030;52.362;9.206;2023-06-22T14:46:26;26.60;89.60
7970;DHT22;4030;52.362;9.206;2023-06-22T14:48:52;26.60;89.30
7970;DHT22;4030;52.362;9.206;2023-06-22T14:51:18;26.70;89.10
7970;DHT22;4030;52.362;9.206;2023-06-22T14:53:46;26.70;89.00
7970;DHT22;4030;52.362;9.206;2023-06-22T14:56:13;26.60;90.00
7970;DHT22;4030;52.362;9.206;2023-06-22T14:58:40;26.60;89.80
7970;DHT22;4030;52.362;9.206;2023-06-22T15:01:10;26.60;90.00
7970;DHT22;4030;52.362;9.206;2023-06-22T15:03:36;26.60;90.20
7970;DHT22;4030;52.362;9.206;2023-06-22T15:06:03;26.60;90.20
7970;DHT22;4030;52.362;9.206;2023-06-22T15:08:28;26.60;90.30
7970;DHT22;4030;52.362;9.206;2023-06-22T15:10:54;26.60;90.30
7970;DHT22;4030;52.362;9.206;2023-06-22T15:13:21;26.60;90.30
7970;DHT22;4030;52.362;9.206;2023-06-22T15:15:48;26.60;90.30
7970;DHT22;4030;52.362;9.206;2023-06-22T15:18:14;26.50;90.40
7970;DHT22;4030;52.362;9.206;2023-06-22T15:20:40;26.50;90.30
7970;DHT22;4030;52.362;9.206;2023-06-22T15:23:09;26.50;90.40
7970;DHT22;4030;52.362;9.206;2023-06-22T15:25:35;26.50;90.50
7970;DHT22;4030;52.362;9.206;2023-06-22T15:28:01;26.40;90.50
7970;DHT22;4030;52.362;9.206;2023-06-22T15:30:26;26.40;90.40
7970;DHT22;4030;52.362;9.206;2023-06-22T15:32:52;26.40;90.30
7970;DHT22;4030;52.362;9.206;2023-06-22T15:35:18;26.30;90.30
7970;DHT22;4030;52.362;9.206;2023-06-22T15:37:47;26.30;90.20
7970;DHT22;4030;52.362;9.206;2023-06-22T15:40:13;26.30;90.30
7970;DHT22;4030;52.362;9.206;2023-06-22T15:42:38;26.20;90.20
7970;DHT22;4030;52.362;9.206;2023-06-22T15:45:05;26.20;90.30
7970;DHT22;4030;52.362;9.206;2023-06-22T15:47:31;26.20;90.30
7970;DHT22;4030;52.362;9.206;2023-06-22T15:49:56;26.10;90.30
7970;DHT22;4030;52.362;9.206;2023-06-22T15:52:22;26.00;90.20
7970;DHT22;4030;52.362;9.206;2023-06-22T15:54:49;26.00;90.10
7970;DHT22;4030;52.362;9.206;2023-06-22T15:57:19;26.00;90.00
7970;DHT22;4030;52.362;9.206;2023-06-22T15:59:45;26.00;90.00
7970;DHT22;4030;52.362;9.206;2023-06-22T16:02:11;25.90;89.80